createdAt,value
2022-11-04T00:02:04.335Z,37.00
2022-11-04T00:04:31.167Z,34.50
2022-11-04T00:06:58.216Z,31.90
2022-11-04T00:09:29.840Z,33.00
2022-11-04T00:12:15.900Z,28.23
2022-11-04T00:14:42.767Z,22.57
2022-11-04T00:17:21.974Z,23.63
2022-11-04T00:20:12.437Z,20.47
2022-11-04T00:23:00.512Z,23.07
2022-11-04T00:25:45.579Z,29.20
2022-11-04T00:28:36.380Z,25.27
2022-11-04T00:31:26.847Z,30.53
2022-11-04T00:33:57.275Z,25.70
2022-11-04T00:36:25.599Z,26.17
2022-11-04T00:38:52.561Z,27.77
2022-11-04T00:41:29.298Z,22.73
2022-11-04T00:43:59.295Z,23.80
2022-11-04T00:46:28.164Z,23.23
2022-11-04T00:48:54.917Z,21.80
2022-11-04T00:51:21.790Z,27.43
2022-11-04T00:53:49.290Z,24.33
2022-11-04T00:56:16.100Z,37.63
2022-11-04T00:58:42.585Z,21.37
2022-11-04T01:01:12.046Z,22.10
2022-11-04T01:03:39.271Z,21.53
2022-11-04T01:06:06.225Z,25.93
2022-11-04T01:08:32.744Z,22.80
2022-11-04T01:11:08.248Z,25.93
2022-11-04T01:13:35.430Z,23.73
2022-11-04T01:16:05.502Z,24.10
2022-11-04T01:18:32.299Z,26.67
2022-11-04T01:21:04.120Z,23.77
2022-11-04T01:23:33.317Z,27.70
2022-11-04T01:25:59.820Z,27.23
2022-11-04T01:28:26.337Z,30.10
2022-11-04T01:30:52.795Z,29.40
2022-11-04T01:33:19.270Z,27.27
2022-11-04T01:35:45.785Z,27.50
2022-11-04T01:38:12.321Z,23.33
2022-11-04T01:40:40.489Z,25.00
2022-11-04T01:43:17.991Z,23.60
2022-11-04T01:46:27.184Z,30.27
2022-11-04T01:49:14.142Z,24.13
2022-11-04T01:51:45.831Z,26.60
2022-11-04T01:54:13.356Z,26.40
2022-11-04T01:56:42.389Z,28.70
2022-11-04T01:59:20.032Z,23.50
2022-11-04T02:01:47.160Z,24.43
2022-11-04T02:04:26.182Z,19.23
2022-11-04T02:06:57.660Z,26.57
2022-11-04T02:09:28.081Z,24.93
2022-11-04T02:12:13.328Z,21.87
2022-11-04T02:14:41.383Z,28.50
2022-11-04T02:24:14.077Z,23.30
2022-11-04T02:29:15.150Z,25.70
2022-11-04T02:35:10.116Z,20.27
2022-11-04T02:39:13.925Z,20.47
2022-11-04T02:43:13.122Z,23.97
2022-11-04T02:45:51.395Z,30.47
2022-11-04T02:49:56.144Z,23.57
2022-11-04T02:52:38.620Z,27.07
2022-11-04T02:55:18.685Z,27.13
2022-11-04T02:57:47.837Z,26.00
2022-11-04T03:00:15.289Z,24.87
2022-11-04T03:02:53.489Z,26.07
2022-11-04T03:05:27.471Z,24.10
2022-11-04T03:08:00.974Z,27.67
2022-11-04T03:10:43.074Z,22.53
2022-11-04T03:13:45.957Z,23.57
2022-11-04T03:16:22.760Z,25.43
2022-11-04T03:19:15.718Z,24.70
2022-11-04T03:21:54.107Z,29.03
2022-11-04T03:24:20.806Z,24.17
2022-11-04T03:27:12.467Z,29.03
2022-11-04T03:30:10.908Z,26.13
2022-11-04T03:35:06.349Z,33.53
2022-11-04T03:37:33.920Z,26.47
2022-11-04T03:40:01.993Z,22.37
2022-11-04T03:42:31.996Z,23.23
2022-11-04T03:44:59.679Z,23.63
2022-11-04T03:47:29.603Z,24.87
2022-11-04T03:50:27.217Z,24.47
2022-11-04T03:52:54.365Z,21.50
2022-11-04T03:55:27.686Z,24.73
2022-11-04T03:58:07.986Z,22.60
2022-11-04T04:00:49.444Z,22.97
2022-11-04T04:03:26.405Z,22.47
2022-11-04T04:06:10.060Z,23.00
2022-11-04T04:08:55.282Z,25.80
2022-11-04T04:11:42.362Z,26.53
2022-11-04T04:15:20.723Z,29.03
2022-11-04T04:17:55.611Z,29.20
2022-11-04T04:20:28.529Z,29.57
2022-11-04T04:23:37.172Z,31.60
2022-11-04T04:26:26.710Z,31.20
2022-11-04T04:28:56.476Z,36.07
2022-11-04T04:31:44.751Z,26.50
2022-11-04T04:34:11.597Z,26.07
2022-11-04T04:37:00.751Z,32.20
2022-11-04T04:40:52.173Z,25.00
2022-11-04T04:43:37.201Z,28.37
2022-11-04T04:46:03.725Z,28.23
2022-11-04T04:48:30.517Z,23.13
2022-11-04T04:51:01.280Z,26.87
2022-11-04T04:53:27.782Z,27.90
2022-11-04T04:55:54.284Z,26.07
2022-11-04T04:58:20.853Z,30.60
2022-11-04T05:00:47.329Z,28.23
2022-11-04T05:03:13.798Z,22.80
2022-11-04T05:05:40.297Z,30.03
2022-11-04T05:08:08.377Z,22.17
2022-11-04T05:10:35.445Z,24.87
2022-11-04T05:13:20.158Z,27.27
2022-11-04T05:15:46.662Z,25.23
2022-11-04T05:18:13.121Z,26.23
2022-11-04T05:20:39.639Z,24.37
2022-11-04T05:23:07.272Z,24.03
2022-11-04T05:25:33.937Z,28.20
2022-11-04T05:28:02.134Z,24.83
2022-11-04T05:30:28.881Z,25.67
2022-11-04T05:32:58.565Z,27.73
2022-11-04T05:35:28.221Z,28.70
2022-11-04T05:37:57.534Z,27.93
2022-11-04T05:40:24.335Z,27.97
2022-11-04T05:42:50.822Z,27.13
2022-11-04T05:45:17.557Z,25.80
2022-11-04T05:47:44.069Z,28.60
2022-11-04T05:50:10.542Z,25.97
2022-11-04T05:52:37.051Z,23.60
2022-11-04T05:55:03.854Z,20.57
2022-11-04T05:57:30.334Z,24.60
2022-11-04T05:59:56.810Z,19.03
2022-11-04T06:02:23.526Z,23.00
2022-11-04T06:04:50.090Z,21.40
2022-11-04T06:07:16.574Z,23.20
2022-11-04T06:09:43.047Z,20.27
2022-11-04T06:12:16.076Z,23.13
2022-11-04T06:14:45.520Z,20.43
2022-11-04T06:17:21.457Z,26.57
2022-11-04T06:19:48.618Z,25.23
2022-11-04T06:22:18.687Z,20.87
2022-11-04T06:24:45.708Z,20.40
2022-11-04T06:27:12.616Z,28.67
2022-11-04T06:29:40.397Z,24.17
2022-11-04T06:32:13.218Z,26.50
2022-11-04T06:34:40.126Z,30.13
2022-11-04T06:37:07.441Z,23.80
2022-11-04T06:39:33.952Z,28.87
2022-11-04T06:42:02.566Z,21.50
2022-11-04T06:44:29.843Z,27.83
2022-11-04T06:46:56.427Z,29.30
2022-11-04T06:49:23.238Z,26.70
2022-11-04T06:51:51.217Z,25.23
2022-11-04T06:54:18.191Z,27.37
2022-11-04T06:56:45.310Z,26.77
2022-11-04T06:59:18.626Z,30.53
2022-11-04T07:01:45.645Z,24.70
2022-11-04T07:04:12.257Z,25.83
2022-11-04T07:06:44.156Z,24.13
2022-11-04T07:09:14.398Z,31.27
2022-11-04T07:11:42.721Z,34.17
2022-11-04T07:14:09.915Z,29.30
2022-11-04T07:16:36.704Z,34.97
2022-11-04T07:19:04.114Z,27.47
2022-11-04T07:21:30.872Z,48.43
2022-11-04T07:23:57.978Z,28.13
2022-11-04T07:26:24.487Z,30.30
2022-11-04T07:28:51.201Z,29.83
2022-11-04T07:31:17.858Z,29.37
2022-11-04T07:33:49.028Z,30.43
2022-11-04T07:36:16.439Z,27.50
2022-11-04T07:38:43.132Z,24.50
2022-11-04T07:41:13.987Z,22.50
2022-11-04T07:43:40.501Z,24.30
2022-11-04T07:46:11.650Z,24.23
2022-11-04T07:48:38.814Z,28.10
2022-11-04T07:51:08.334Z,26.83
2022-11-04T07:53:35.163Z,27.23
2022-11-04T07:56:07.827Z,28.70
2022-11-04T07:58:34.623Z,28.10
2022-11-04T08:01:06.209Z,27.50
2022-11-04T08:03:36.297Z,33.90
2022-11-04T08:06:08.097Z,35.23
2022-11-04T08:08:35.245Z,33.23
2022-11-04T08:11:15.868Z,33.93
2022-11-04T08:13:44.753Z,31.53
2022-11-04T08:16:17.751Z,35.27
2022-11-04T08:18:45.415Z,34.90
2022-11-04T08:21:12.327Z,30.90
2022-11-04T08:23:39.522Z,31.07
2022-11-04T08:26:11.223Z,34.73
2022-11-04T08:28:38.082Z,33.13
2022-11-04T08:31:10.157Z,34.67
2022-11-04T08:33:36.890Z,34.80
2022-11-04T08:36:08.661Z,33.33
2022-11-04T08:38:36.259Z,32.00
2022-11-04T08:41:06.703Z,44.10
2022-11-04T08:43:34.112Z,33.63
2022-11-04T08:46:01.525Z,34.53
2022-11-04T08:48:28.161Z,31.10
2022-11-04T08:50:58.177Z,28.63
2022-11-04T08:53:25.212Z,27.60
2022-11-04T08:55:51.780Z,33.30
2022-11-04T08:58:18.744Z,31.50
2022-11-04T09:00:45.222Z,28.03
2022-11-04T09:03:11.983Z,28.77
2022-11-04T09:05:44.237Z,23.87
2022-11-04T09:08:16.071Z,24.53
2022-11-04T09:10:45.251Z,24.37
2022-11-04T09:13:13.083Z,24.23
2022-11-04T09:15:41.529Z,29.33
2022-11-04T09:18:08.124Z,26.27
2022-11-04T09:20:37.726Z,22.67
2022-11-04T09:23:05.182Z,29.63
2022-11-04T09:25:32.396Z,24.17
2022-11-04T09:27:59.623Z,24.23
2022-11-04T09:30:26.395Z,20.33
2022-11-04T09:32:53.130Z,19.97
2022-11-04T09:35:19.749Z,20.43
2022-11-04T09:37:46.338Z,20.37
2022-11-04T09:40:18.899Z,21.83
2022-11-04T09:45:30.720Z,17.87
2022-11-04T09:48:15.027Z,17.57
2022-11-04T09:50:50.259Z,17.20
2022-11-04T09:54:22.582Z,17.93
2022-11-04T09:56:52.309Z,17.63
2022-11-04T09:59:34.423Z,17.47
2022-11-04T10:02:44.890Z,20.27
2022-11-04T10:07:37.001Z,16.00
2022-11-04T10:11:43.813Z,16.37
2022-11-04T10:17:34.698Z,19.63
2022-11-04T10:23:31.501Z,16.07
2022-11-04T10:27:36.017Z,18.47
2022-11-04T10:30:15.053Z,13.53
2022-11-04T10:33:40.970Z,17.23
2022-11-04T10:36:14.694Z,14.53
2022-11-04T10:38:54.088Z,16.63
2022-11-04T10:41:42.705Z,16.17
2022-11-04T10:44:28.835Z,18.73
2022-11-04T10:51:57.199Z,20.17
2022-11-04T10:54:26.801Z,25.17
2022-11-04T10:56:55.849Z,18.73
2022-11-04T11:00:14.400Z,17.17
2022-11-04T11:02:46.816Z,21.73
2022-11-04T11:05:46.835Z,20.60
2022-11-04T11:08:33.328Z,19.90
2022-11-04T11:11:00.125Z,19.77
2022-11-04T11:13:35.349Z,20.60
2022-11-04T11:16:16.510Z,18.83
2022-11-04T11:18:43.045Z,19.40
2022-11-04T11:21:22.559Z,22.63
2022-11-04T11:23:50.559Z,21.20
2022-11-04T11:26:29.922Z,19.10
2022-11-04T11:29:01.687Z,26.60
2022-11-04T11:31:38.432Z,26.80
2022-11-04T11:34:20.425Z,26.33
2022-11-04T11:36:47.940Z,26.93
2022-11-04T11:39:22.297Z,27.93
2022-11-04T11:42:06.992Z,29.60
2022-11-04T11:44:47.398Z,27.70
2022-11-04T11:47:37.467Z,28.00
2022-11-04T11:50:27.875Z,29.47
2022-11-04T11:53:18.913Z,27.50
2022-11-04T11:56:09.515Z,24.80
2022-11-04T12:02:27.993Z,24.27
2022-11-04T12:14:25.558Z,27.30
2022-11-04T12:19:19.935Z,29.63
2022-11-04T12:23:12.987Z,28.43
2022-11-04T12:27:58.444Z,26.83
2022-11-04T12:30:32.317Z,24.73
2022-11-04T12:36:18.789Z,24.57
2022-11-04T12:42:32.442Z,23.50
2022-11-04T12:47:14.782Z,20.73
2022-11-04T12:50:05.716Z,19.67
2022-11-04T12:53:18.653Z,23.50
2022-11-04T12:56:16.935Z,26.67
2022-11-04T13:00:40.724Z,26.73
2022-11-04T13:03:20.659Z,24.17
2022-11-04T13:06:14.943Z,20.47
2022-11-04T13:08:53.981Z,19.43
2022-11-04T13:11:41.234Z,13.57
2022-11-04T13:14:29.369Z,8.97
2022-11-04T13:17:06.830Z,3.13
2022-11-04T13:19:47.892Z,3.30
2022-11-04T13:22:25.809Z,3.57
2022-11-04T13:25:44.409Z,1.97
2022-11-04T13:28:14.441Z,2.93
2022-11-04T13:31:47.319Z,2.80
2022-11-04T13:35:03.380Z,7.27
2022-11-04T13:38:11.833Z,0.83
2022-11-04T13:42:37.397Z,0.70
2022-11-04T13:45:18.015Z,0.37
2022-11-04T13:47:57.829Z,0.20
2022-11-04T13:50:40.870Z,0.77
2022-11-04T13:53:11.086Z,0.33
2022-11-04T13:55:50.206Z,0.57
2022-11-04T13:58:27.310Z,2.30
2022-11-04T14:01:26.975Z,0.87
2022-11-04T14:04:41.197Z,0.20
2022-11-04T14:07:11.869Z,0.30
2022-11-04T14:12:54.487Z,0.30
2022-11-04T14:19:12.294Z,1.50
2022-11-04T14:22:09.125Z,0.73
2022-11-04T14:24:35.659Z,1.43
2022-11-04T14:27:02.870Z,1.40
2022-11-04T14:29:29.357Z,0.70
2022-11-04T14:31:59.902Z,1.43
2022-11-04T14:34:42.870Z,0.80
2022-11-04T14:37:42.820Z,1.03
2022-11-04T14:40:43.500Z,0.37
2022-11-04T14:43:31.281Z,0.40
2022-11-04T14:46:00.968Z,1.50
2022-11-04T14:48:29.157Z,0.60
2022-11-04T14:50:57.239Z,3.83
2022-11-04T14:53:34.008Z,0.77
2022-11-04T14:56:33.968Z,0.67
2022-11-04T14:59:06.448Z,1.23
2022-11-04T15:01:37.975Z,1.10
2022-11-04T15:04:24.429Z,1.03
2022-11-04T15:07:03.927Z,1.50
2022-11-04T15:09:34.836Z,1.00
2022-11-04T15:12:32.014Z,4.80
2022-11-04T15:14:59.570Z,4.67
2022-11-04T15:17:32.337Z,5.87
2022-11-04T15:20:03.939Z,2.60
2022-11-04T15:22:30.614Z,2.40
2022-11-04T15:25:05.064Z,2.20
2022-11-04T15:27:33.609Z,2.57
2022-11-04T15:30:03.279Z,2.50
2022-11-04T15:32:30.163Z,1.97
2022-11-04T15:34:57.518Z,5.50
2022-11-04T15:37:25.860Z,5.70
2022-11-04T15:39:57.476Z,3.43
2022-11-04T15:42:44.726Z,5.90
2022-11-04T15:46:18.778Z,3.87
2022-11-04T15:49:06.589Z,4.63
2022-11-04T15:51:42.839Z,5.33
2022-11-04T15:54:28.858Z,7.93
2022-11-04T15:57:00.166Z,5.47
2022-11-04T15:59:34.787Z,7.70
2022-11-04T16:02:05.416Z,6.40
2022-11-04T16:04:33.003Z,6.30
2022-11-04T16:07:39.219Z,5.07
2022-11-04T16:10:36.245Z,4.87
2022-11-04T16:14:56.940Z,32.67
2022-11-04T16:17:24.884Z,12.63
2022-11-04T16:19:58.090Z,13.20
2022-11-04T16:22:46.271Z,33.70
2022-11-04T16:25:22.894Z,31.43
2022-11-04T16:27:50.382Z,21.67
2022-11-04T16:30:22.597Z,19.10
2022-11-04T16:32:55.147Z,11.20
2022-11-04T16:35:27.505Z,7.53
2022-11-04T16:37:55.805Z,3.50
2022-11-04T16:40:24.240Z,7.77
2022-11-04T16:42:52.465Z,5.30
2022-11-04T16:45:45.588Z,4.97
2022-11-04T16:48:20.345Z,6.67
2022-11-04T16:50:48.165Z,6.87
2022-11-04T16:53:14.627Z,7.00
2022-11-04T16:55:43.635Z,15.13
2022-11-04T16:58:17.222Z,24.30
2022-11-04T17:00:43.752Z,13.80
2022-11-04T17:03:22.275Z,9.23
2022-11-04T17:05:55.714Z,3.50
2022-11-04T17:08:24.177Z,7.20
2022-11-04T17:10:50.716Z,4.20
2022-11-04T17:13:17.252Z,7.63
2022-11-04T17:15:43.740Z,9.27
2022-11-04T17:18:15.671Z,7.23
2022-11-04T17:20:47.342Z,8.33
2022-11-04T17:23:15.063Z,6.93
2022-11-04T17:25:42.316Z,3.90
2022-11-04T17:28:09.073Z,5.33
2022-11-04T17:30:36.268Z,3.00
2022-11-04T17:33:07.003Z,3.80
2022-11-04T17:35:41.093Z,2.87
2022-11-04T17:38:09.415Z,4.13
2022-11-04T17:42:39.293Z,4.07
2022-11-04T17:45:06.428Z,6.80
2022-11-04T17:47:37.550Z,6.17
2022-11-04T17:50:09.020Z,5.43
2022-11-04T17:52:36.663Z,9.63
2022-11-04T17:55:04.481Z,10.50
2022-11-04T17:57:33.294Z,6.97
2022-11-04T17:59:59.865Z,3.63
2022-11-04T18:02:26.533Z,3.20
2022-11-04T18:04:53.076Z,4.10
2022-11-04T18:07:19.566Z,6.40
2022-11-04T18:09:46.101Z,5.83
2022-11-04T18:12:30.685Z,3.57
2022-11-04T18:14:57.165Z,9.13
2022-11-04T18:17:24.170Z,2.77
2022-11-04T18:19:51.952Z,2.37
2022-11-04T18:22:19.025Z,3.10
2022-11-04T18:24:47.139Z,2.87
2022-11-04T18:27:15.028Z,4.67
2022-11-04T18:29:41.542Z,9.43
2022-11-04T18:32:08.044Z,3.47
2022-11-04T18:34:34.961Z,2.67
2022-11-04T18:37:01.430Z,7.13
2022-11-04T18:39:27.914Z,3.03
2022-11-04T18:41:54.404Z,4.10
2022-11-04T18:44:22.658Z,2.73
2022-11-04T18:46:49.767Z,2.30
2022-11-04T18:49:17.461Z,4.90
2022-11-04T18:51:44.008Z,3.33
2022-11-04T18:54:12.001Z,5.43
2022-11-04T18:56:39.034Z,16.43
2022-11-04T18:59:12.259Z,20.73
2022-11-04T19:01:39.374Z,21.03
2022-11-04T19:04:06.541Z,22.63
2022-11-04T19:06:39.497Z,10.70
2022-11-04T19:09:40.088Z,7.43
2022-11-04T19:12:30.021Z,3.90
2022-11-04T19:14:56.532Z,11.03
2022-11-04T19:17:23.017Z,9.00
2022-11-04T19:19:50.651Z,10.47
2022-11-04T19:22:17.169Z,20.33
2022-11-04T19:24:43.631Z,12.80
2022-11-04T19:27:10.132Z,17.03
2022-11-04T19:29:36.612Z,7.73
2022-11-04T19:32:03.400Z,9.07
2022-11-04T19:34:29.904Z,8.60
2022-11-04T19:36:56.389Z,11.07
2022-11-04T19:39:22.924Z,13.47
2022-11-04T19:42:07.737Z,13.63
2022-11-04T19:44:34.274Z,9.67
2022-11-04T19:47:00.734Z,13.50
2022-11-04T19:49:30.673Z,7.97
2022-11-04T19:51:58.536Z,6.40
2022-11-04T19:54:25.087Z,7.80
2022-11-04T19:56:52.443Z,18.13
2022-11-04T19:59:18.961Z,5.87
2022-11-04T20:01:45.544Z,4.87
2022-11-04T20:04:12.627Z,7.97
2022-11-04T20:06:39.176Z,3.37
2022-11-04T20:09:08.881Z,1.70
2022-11-04T20:11:59.306Z,3.17
2022-11-04T20:14:27.717Z,2.73
2022-11-04T20:16:54.587Z,2.03
2022-11-04T20:19:22.876Z,2.70
2022-11-04T20:21:49.812Z,2.53
2022-11-04T20:24:16.309Z,3.33
2022-11-04T20:26:43.379Z,2.97
2022-11-04T20:29:11.095Z,3.93
2022-11-04T20:31:38.571Z,3.23
2022-11-04T20:34:08.465Z,3.00
2022-11-04T20:36:36.753Z,11.23
2022-11-04T20:39:18.907Z,3.07
2022-11-04T20:41:46.385Z,4.10
2022-11-04T20:44:14.873Z,2.80
2022-11-04T20:46:42.479Z,7.67
2022-11-04T20:49:09.362Z,3.50
2022-11-04T20:51:45.466Z,10.83
2022-11-04T20:54:14.840Z,6.03
2022-11-04T20:56:43.351Z,15.50
2022-11-04T20:59:13.033Z,2.80
2022-11-04T21:01:43.685Z,6.33
2022-11-04T21:04:14.412Z,3.60
2022-11-04T21:06:42.067Z,6.03
2022-11-04T21:09:13.448Z,2.87
2022-11-04T21:11:40.696Z,3.83
2022-11-04T21:14:10.852Z,3.00
2022-11-04T21:16:37.323Z,2.33
2022-11-04T21:19:04.976Z,4.93
2022-11-04T21:21:32.532Z,6.37
2022-11-04T21:24:05.059Z,2.70
2022-11-04T21:26:34.709Z,3.23
2022-11-04T21:29:05.603Z,3.87
2022-11-04T21:31:34.571Z,3.70
2022-11-04T21:34:02.785Z,3.40
2022-11-04T21:36:29.606Z,3.50
2022-11-04T21:38:58.277Z,4.00
2022-11-04T21:41:27.855Z,4.47
2022-11-04T21:44:00.307Z,3.13
2022-11-04T21:46:30.507Z,4.23
2022-11-04T21:48:58.017Z,6.23
2022-11-04T21:51:31.127Z,9.00
2022-11-04T21:53:59.703Z,10.10
2022-11-04T21:56:32.182Z,4.47
2022-11-04T21:58:59.813Z,6.70
2022-11-04T22:01:28.804Z,2.70
2022-11-04T22:03:58.994Z,5.63
2022-11-04T22:06:34.015Z,8.73
2022-11-04T22:09:03.950Z,1.97
2022-11-04T22:11:35.561Z,2.83
2022-11-04T22:14:05.146Z,3.23
2022-11-04T22:16:34.651Z,3.60
2022-11-04T22:19:03.884Z,7.33
2022-11-04T22:21:31.749Z,4.53
2022-11-04T22:23:59.898Z,3.03
2022-11-04T22:26:30.324Z,2.30
2022-11-04T22:28:57.275Z,3.83
2022-11-04T22:31:30.397Z,4.67
2022-11-04T22:33:57.850Z,4.03
2022-11-04T22:36:25.226Z,4.10
2022-11-04T22:38:51.742Z,2.23
2022-11-04T22:41:22.037Z,2.87
2022-11-04T22:43:48.688Z,2.70
2022-11-04T22:46:28.665Z,3.97
2022-11-04T22:48:55.531Z,3.80
2022-11-04T22:51:22.349Z,3.00
2022-11-04T22:53:57.842Z,3.10
2022-11-04T22:56:25.491Z,1.83
2022-11-04T22:58:53.295Z,3.07
2022-11-04T23:01:19.889Z,2.47
2022-11-04T23:03:52.613Z,4.83
2022-11-04T23:06:19.186Z,1.90
2022-11-04T23:08:45.672Z,1.20
2022-11-04T23:11:43.706Z,1.87
2022-11-04T23:14:35.265Z,1.43
2022-11-04T23:17:21.404Z,1.03
2022-11-04T23:19:50.112Z,3.03
2022-11-04T23:22:34.735Z,21.20
2022-11-04T23:25:08.792Z,10.53
2022-11-04T23:28:10.073Z,11.10
2022-11-04T23:30:41.517Z,44.67
2022-11-04T23:33:11.491Z,6.93
2022-11-04T23:36:03.989Z,3.43
2022-11-04T23:38:31.375Z,8.00
2022-11-04T23:41:20.272Z,15.07
2022-11-04T23:43:46.771Z,69.87
2022-11-04T23:46:31.957Z,10.97
2022-11-04T23:49:16.753Z,6.00
2022-11-04T23:52:01.713Z,16.97
2022-11-04T23:54:46.614Z,0.60
2022-11-04T23:57:36.632Z,1.97
